sensor_id;sensor_type;location;lat;lon;timestamp;pressure;altitude;pressure_sealevel;temperature;humidity
43745;BME280;29359;53.048;8.732;2023-01-19T00:01:54;99883.41;;;1.76;86.76
43745;BME280;29359;53.048;8.732;2023-01-19T00:03:56;99891.25;;;1.75;87.37
43745;BME280;29359;53.048;8.732;2023-01-19T00:06:03;99890.34;;;1.77;86.85
43745;BME280;29359;53.048;8.732;2023-01-19T00:08:05;99881.69;;;1.77;87.10
43745;BME280;29359;53.048;8.732;2023-01-19T00:10:15;99884.28;;;1.77;87.16
43745;BME280;29359;53.048;8.732;2023-01-19T00:12:17;99880.81;;;1.78;87.21
43745;BME280;29359;53.048;8.732;2023-01-19T00:14:18;99882.53;;;1.79;87.13
43745;BME280;29359;53.048;8.732;2023-01-19T00:16:20;99892.06;;;1.80;87.04
43745;BME280;29359;53.048;8.732;2023-01-19T00:18:23;99879.94;;;1.79;87.44
43745;BME280;29359;53.048;8.732;2023-01-19T00:20:26;99886.00;;;1.79;87.30
43745;BME280;29359;53.048;8.732;2023-01-19T00:22:27;99884.25;;;1.80;87.23
43745;BME280;29359;53.048;8.732;2023-01-19T00:24:28;99885.13;;;1.79;87.44
43745;BME280;29359;53.048;8.732;2023-01-19T00:26:30;99890.34;;;1.79;87.42
43745;BME280;29359;53.048;8.732;2023-01-19T00:28:31;99894.66;;;1.80;87.30
43745;BME280;29359;53.048;8.732;2023-01-19T00:30:33;99892.94;;;1.80;87.45
43745;BME280;29359;53.048;8.732;2023-01-19T00:32:35;99888.59;;;1.81;87.66
43745;BME280;29359;53.048;8.732;2023-01-19T00:34:36;99899.00;;;1.81;87.65
43745;BME280;29359;53.048;8.732;2023-01-19T00:36:40;99887.69;;;1.83;87.90
43745;BME280;29359;53.048;8.732;2023-01-19T00:38:41;99893.75;;;1.84;87.78
43745;BME280;29359;53.048;8.732;2023-01-19T00:40:43;99898.06;;;1.88;87.84
43745;BME280;29359;53.048;8.732;2023-01-19T00:42:44;99901.53;;;1.90;87.45
43745;BME280;29359;53.048;8.732;2023-01-19T00:44:48;99893.69;;;1.92;87.54
43745;BME280;29359;53.048;8.732;2023-01-19T00:46:49;99901.50;;;1.93;87.51
43745;BME280;29359;53.048;8.732;2023-01-19T00:48:51;99893.69;;;1.95;87.70
43745;BME280;29359;53.048;8.732;2023-01-19T00:50:52;99894.53;;;1.95;87.33
43745;BME280;29359;53.048;8.732;2023-01-19T00:52:55;99907.53;;;1.97;87.61
43745;BME280;29359;53.048;8.732;2023-01-19T00:54:56;99899.75;;;1.95;87.88
43745;BME280;29359;53.048;8.732;2023-01-19T00:56:58;99902.34;;;1.97;87.91
43745;BME280;29359;53.048;8.732;2023-01-19T00:58:59;99898.00;;;1.97;87.62
43745;BME280;29359;53.048;8.732;2023-01-19T01:01:01;99898.81;;;2.01;87.82
43745;BME280;29359;53.048;8.732;2023-01-19T01:03:05;99910.06;;;2.04;88.09
43745;BME280;29359;53.048;8.732;2023-01-19T01:05:07;99905.75;;;2.03;87.95
43745;BME280;29359;53.048;8.732;2023-01-19T01:07:09;99904.03;;;2.01;88.16
43745;BME280;29359;53.048;8.732;2023-01-19T01:09:10;99904.88;;;2.04;88.54
43745;BME280;29359;53.048;8.732;2023-01-19T01:11:12;99909.19;;;2.05;88.29
43745;BME280;29359;53.048;8.732;2023-01-19T01:13:14;99911.81;;;2.05;88.81
43745;BME280;29359;53.048;8.732;2023-01-19T01:15:22;99905.75;;;2.03;88.88
43745;BME280;29359;53.048;8.732;2023-01-19T01:17:24;99914.41;;;2.04;89.08
43745;BME280;29359;53.048;8.732;2023-01-19T01:19:26;99917.91;;;2.01;89.02
43745;BME280;29359;53.048;8.732;2023-01-19T01:21:27;99908.38;;;2.00;89.34
43745;BME280;29359;53.048;8.732;2023-01-19T01:23:29;99911.00;;;1.97;89.75
43745;BME280;29359;53.048;8.732;2023-01-19T01:25:30;99912.75;;;1.95;90.26
43745;BME280;29359;53.048;8.732;2023-01-19T01:27:34;99913.63;;;1.94;90.42
43745;BME280;29359;53.048;8.732;2023-01-19T01:29:35;99913.63;;;1.94;90.60
43745;BME280;29359;53.048;8.732;2023-01-19T01:31:37;99905.00;;;1.91;90.99
43745;BME280;29359;53.048;8.732;2023-01-19T01:33:38;99905.84;;;1.91;90.99
43745;BME280;29359;53.048;8.732;2023-01-19T01:35:42;99906.72;;;1.90;91.63
43745;BME280;29359;53.048;8.732;2023-01-19T01:37:43;99902.41;;;1.89;91.43
43745;BME280;29359;53.048;8.732;2023-01-19T01:39:45;99908.44;;;1.91;91.89
43745;BME280;29359;53.048;8.732;2023-01-19T01:41:47;99898.91;;;1.90;92.15
43745;BME280;29359;53.048;8.732;2023-01-19T01:43:51;99894.56;;;1.91;92.03
43745;BME280;29359;53.048;8.732;2023-01-19T01:46:01;99906.72;;;1.90;92.27
43745;BME280;29359;53.048;8.732;2023-01-19T01:50:17;99894.59;;;1.87;92.55
43745;BME280;29359;53.048;8.732;2023-01-19T01:52:21;99901.53;;;1.88;92.46
43745;BME280;29359;53.048;8.732;2023-01-19T01:54:28;99904.13;;;1.90;92.53
43745;BME280;29359;53.048;8.732;2023-01-19T01:56:41;99899.78;;;1.92;92.36
43745;BME280;29359;53.048;8.732;2023-01-19T01:58:44;99898.88;;;1.93;92.21
43745;BME280;29359;53.048;8.732;2023-01-19T02:00:46;99896.28;;;1.93;92.49
43745;BME280;29359;53.048;8.732;2023-01-19T02:03:06;99898.88;;;1.95;91.94
43745;BME280;29359;53.048;8.732;2023-01-19T02:05:11;99894.53;;;1.95;92.31
43745;BME280;29359;53.048;8.732;2023-01-19T02:07:18;99910.13;;;1.98;92.11
43745;BME280;29359;53.048;8.732;2023-01-19T02:09:39;99900.59;;;1.96;92.64
43745;BME280;29359;53.048;8.732;2023-01-19T02:12:00;99897.16;;;1.94;92.68
43745;BME280;29359;53.048;8.732;2023-01-19T02:14:20;99895.44;;;1.93;92.92
43745;BME280;29359;53.048;8.732;2023-01-19T02:16:22;99899.75;;;1.95;93.08
43745;BME280;29359;53.048;8.732;2023-01-19T02:18:26;99898.03;;;1.93;93.17
43745;BME280;29359;53.048;8.732;2023-01-19T02:20:30;99894.53;;;1.95;93.09
43745;BME280;29359;53.048;8.732;2023-01-19T02:22:41;99901.47;;;1.95;93.39
43745;BME280;29359;53.048;8.732;2023-01-19T02:24:45;99901.50;;;1.93;93.49
43745;BME280;29359;53.048;8.732;2023-01-19T02:26:47;99893.69;;;1.92;93.47
43745;BME280;29359;53.048;8.732;2023-01-19T02:28:53;99900.63;;;1.93;93.42
43745;BME280;29359;53.048;8.732;2023-01-19T02:30:57;99895.44;;;1.93;93.48
43745;BME280;29359;53.048;8.732;2023-01-19T02:32:59;99898.00;;;1.94;93.89
43745;BME280;29359;53.048;8.732;2023-01-19T02:35:01;99898.00;;;1.94;93.68
43745;BME280;29359;53.048;8.732;2023-01-19T02:37:08;99895.41;;;1.94;93.80
43745;BME280;29359;53.048;8.732;2023-01-19T02:39:12;99901.47;;;1.95;93.91
43745;BME280;29359;53.048;8.732;2023-01-19T02:41:18;99900.59;;;1.97;93.87
43745;BME280;29359;53.048;8.732;2023-01-19T02:43:22;99904.91;;;1.98;94.02
43745;BME280;29359;53.048;8.732;2023-01-19T02:45:26;99905.78;;;1.97;93.90
43745;BME280;29359;53.048;8.732;2023-01-19T02:47:36;99906.66;;;1.99;93.48
43745;BME280;29359;53.048;8.732;2023-01-19T02:49:38;99908.38;;;1.99;93.62
43745;BME280;29359;53.048;8.732;2023-01-19T02:51:42;99904.03;;;1.99;93.60
43745;BME280;29359;53.048;8.732;2023-01-19T03:00:38;99899.69;;;2.00;94.06
43745;BME280;29359;53.048;8.732;2023-01-19T03:02:58;99911.81;;;2.04;93.27
43745;BME280;29359;53.048;8.732;2023-01-19T03:05:31;99902.28;;;2.03;93.81
43745;BME280;29359;53.048;8.732;2023-01-19T03:14:48;99898.81;;;2.02;94.05
43745;BME280;29359;53.048;8.732;2023-01-19T03:16:55;99901.41;;;2.04;93.81
43745;BME280;29359;53.048;8.732;2023-01-19T03:19:03;99907.47;;;2.03;93.92
43745;BME280;29359;53.048;8.732;2023-01-19T03:21:08;99905.75;;;2.03;93.83
43745;BME280;29359;53.048;8.732;2023-01-19T03:23:12;99912.69;;;2.03;94.28
43745;BME280;29359;53.048;8.732;2023-01-19T03:25:16;99905.75;;;2.03;93.57
43745;BME280;29359;53.048;8.732;2023-01-19T03:27:28;99897.94;;;2.02;94.05
43745;BME280;29359;53.048;8.732;2023-01-19T03:29:33;99900.56;;;1.99;94.36
43745;BME280;29359;53.048;8.732;2023-01-19T03:31:35;99901.44;;;1.99;94.39
43745;BME280;29359;53.048;8.732;2023-01-19T03:33:39;99895.34;;;2.02;94.59
43745;BME280;29359;53.048;8.732;2023-01-19T03:35:48;99904.88;;;2.03;94.46
43745;BME280;29359;53.048;8.732;2023-01-19T03:37:54;99902.28;;;2.03;94.57
43745;BME280;29359;53.048;8.732;2023-01-19T03:39:58;99900.53;;;2.03;94.43
43745;BME280;29359;53.048;8.732;2023-01-19T03:42:03;99909.22;;;2.02;94.72
43745;BME280;29359;53.048;8.732;2023-01-19T03:44:06;99910.13;;;1.98;94.63
43745;BME280;29359;53.048;8.732;2023-01-19T03:46:08;99907.53;;;1.98;95.01
43745;BME280;29359;53.048;8.732;2023-01-19T03:48:19;99911.00;;;1.97;95.18
43745;BME280;29359;53.048;8.732;2023-01-19T03:50:27;99926.59;;;1.99;95.01
43745;BME280;29359;53.048;8.732;2023-01-19T03:52:30;99925.75;;;1.98;95.25
43745;BME280;29359;53.048;8.732;2023-01-19T03:54:35;99917.09;;;1.96;95.14
43745;BME280;29359;53.048;8.732;2023-01-19T03:56:37;99928.38;;;1.95;95.68
43745;BME280;29359;53.048;8.732;2023-01-19T03:58:38;99922.31;;;1.95;96.00
43745;BME280;29359;53.048;8.732;2023-01-19T04:00:40;99920.53;;;1.98;95.75
43745;BME280;29359;53.048;8.732;2023-01-19T04:02:41;99926.59;;;1.99;95.65
43745;BME280;29359;53.048;8.732;2023-01-19T04:04:43;99923.16;;;1.95;96.04
43745;BME280;29359;53.048;8.732;2023-01-19T04:06:45;99923.16;;;1.95;95.92
43745;BME280;29359;53.048;8.732;2023-01-19T04:08:47;99919.69;;;1.95;95.93
43745;BME280;29359;53.048;8.732;2023-01-19T04:10:49;99920.56;;;1.95;95.82
43745;BME280;29359;53.048;8.732;2023-01-19T04:12:59;99920.56;;;1.95;96.42
43745;BME280;29359;53.048;8.732;2023-01-19T04:15:01;99922.31;;;1.93;96.28
43745;BME280;29359;53.048;8.732;2023-01-19T04:17:03;99916.22;;;1.96;96.38
43745;BME280;29359;53.048;8.732;2023-01-19T04:19:04;99914.50;;;1.95;96.31
43745;BME280;29359;53.048;8.732;2023-01-19T04:21:06;99921.44;;;1.94;96.53
43745;BME280;29359;53.048;8.732;2023-01-19T04:23:08;99917.09;;;1.96;96.05
43745;BME280;29359;53.048;8.732;2023-01-19T04:25:09;99922.31;;;1.93;96.57
43745;BME280;29359;53.048;8.732;2023-01-19T04:27:11;99935.34;;;1.93;96.60
43745;BME280;29359;53.048;8.732;2023-01-19T04:29:12;99929.28;;;1.91;96.97
43745;BME280;29359;53.048;8.732;2023-01-19T04:31:14;99931.00;;;1.92;96.98
43745;BME280;29359;53.048;8.732;2023-01-19T04:33:16;99929.25;;;1.94;96.87
43745;BME280;29359;53.048;8.732;2023-01-19T04:35:17;99929.25;;;1.94;97.03
43745;BME280;29359;53.048;8.732;2023-01-19T04:37:19;99924.91;;;1.93;97.06
43745;BME280;29359;53.048;8.732;2023-01-19T04:39:20;99931.00;;;1.92;97.19
43745;BME280;29359;53.048;8.732;2023-01-19T04:41:23;99924.09;;;1.89;97.45
43745;BME280;29359;53.048;8.732;2023-01-19T04:43:24;99921.47;;;1.91;97.59
43745;BME280;29359;53.048;8.732;2023-01-19T04:45:26;99931.88;;;1.91;97.56
43745;BME280;29359;53.048;8.732;2023-01-19T04:47:27;99927.56;;;1.88;97.75
43745;BME280;29359;53.048;8.732;2023-01-19T04:49:29;99943.19;;;1.88;98.16
43745;BME280;29359;53.048;8.732;2023-01-19T04:51:30;99923.22;;;1.87;98.00
43745;BME280;29359;53.048;8.732;2023-01-19T04:53:32;99944.03;;;1.89;98.22
43745;BME280;29359;53.048;8.732;2023-01-19T04:55:33;99931.03;;;1.89;98.21
43745;BME280;29359;53.048;8.732;2023-01-19T04:57:35;99946.63;;;1.91;98.37
43745;BME280;29359;53.048;8.732;2023-01-19T04:59:36;99944.91;;;1.88;98.08
43745;BME280;29359;53.048;8.732;2023-01-19T05:01:38;99935.38;;;1.87;98.36
43745;BME280;29359;53.048;8.732;2023-01-19T05:03:40;99935.38;;;1.87;98.24
43745;BME280;29359;53.048;8.732;2023-01-19T05:05:41;99939.72;;;1.85;98.46
43745;BME280;29359;53.048;8.732;2023-01-19T05:07:43;99939.72;;;1.85;98.39
43745;BME280;29359;53.048;8.732;2023-01-19T05:09:44;99945.78;;;1.88;98.68
43745;BME280;29359;53.048;8.732;2023-01-19T05:11:46;99946.66;;;1.86;98.72
43745;BME280;29359;53.048;8.732;2023-01-19T05:13:47;99951.00;;;1.87;98.85
43745;BME280;29359;53.048;8.732;2023-01-19T05:15:51;99949.28;;;1.86;99.06
43745;BME280;29359;53.048;8.732;2023-01-19T05:17:52;99948.41;;;1.87;98.85
43745;BME280;29359;53.048;8.732;2023-01-19T05:19:54;99946.66;;;1.86;99.04
43745;BME280;29359;53.048;8.732;2023-01-19T05:21:55;99956.19;;;1.87;99.22
43745;BME280;29359;53.048;8.732;2023-01-19T05:23:57;99952.72;;;1.86;99.14
43745;BME280;29359;53.048;8.732;2023-01-19T05:25:59;99954.47;;;1.87;99.26
43745;BME280;29359;53.048;8.732;2023-01-19T05:28:02;99958.81;;;1.87;99.22
43745;BME280;29359;53.048;8.732;2023-01-19T05:30:05;99959.66;;;1.87;99.63
43745;BME280;29359;53.048;8.732;2023-01-19T05:32:06;99957.06;;;1.89;99.64
43745;BME280;29359;53.048;8.732;2023-01-19T05:34:10;99959.66;;;1.89;99.67
43745;BME280;29359;53.048;8.732;2023-01-19T05:36:12;99959.66;;;1.89;99.70
43745;BME280;29359;53.048;8.732;2023-01-19T05:38:13;99958.78;;;1.90;99.55
43745;BME280;29359;53.048;8.732;2023-01-19T05:40:19;99954.44;;;1.89;99.56
43745;BME280;29359;53.048;8.732;2023-01-19T05:42:20;99957.91;;;1.91;99.49
43745;BME280;29359;53.048;8.732;2023-01-19T05:44:22;99955.31;;;1.91;99.54
43745;BME280;29359;53.048;8.732;2023-01-19T05:46:23;99958.78;;;1.92;99.92
43745;BME280;29359;53.048;8.732;2023-01-19T05:48:25;99957.88;;;1.94;99.54
43745;BME280;29359;53.048;8.732;2023-01-19T05:50:27;99954.44;;;1.92;99.75
43745;BME280;29359;53.048;8.732;2023-01-19T05:52:28;99962.22;;;1.92;99.42
43745;BME280;29359;53.048;8.732;2023-01-19T05:54:29;99965.69;;;1.94;99.28
43745;BME280;29359;53.048;8.732;2023-01-19T05:56:32;99965.69;;;1.93;99.28
43745;BME280;29359;53.048;8.732;2023-01-19T05:58:34;99962.22;;;1.92;99.49
43745;BME280;29359;53.048;8.732;2023-01-19T06:00:36;99965.69;;;1.94;98.99
43745;BME280;29359;53.048;8.732;2023-01-19T06:02:37;99972.63;;;1.95;98.98
43745;BME280;29359;53.048;8.732;2023-01-19T06:04:39;99972.63;;;1.95;99.53
43745;BME280;29359;53.048;8.732;2023-01-19T06:06:41;99965.66;;;1.97;99.20
43745;BME280;29359;53.048;8.732;2023-01-19T06:08:42;99969.13;;;1.99;98.99
43745;BME280;29359;53.048;8.732;2023-01-19T06:10:44;99983.00;;;1.98;98.96
43745;BME280;29359;53.048;8.732;2023-01-19T06:12:46;99976.94;;;1.98;98.76
43745;BME280;29359;53.048;8.732;2023-01-19T06:14:48;99972.59;;;2.00;98.88
43745;BME280;29359;53.048;8.732;2023-01-19T06:16:50;99977.78;;;2.01;98.44
43745;BME280;29359;53.048;8.732;2023-01-19T06:18:52;99974.31;;;2.01;98.52
43745;BME280;29359;53.048;8.732;2023-01-19T06:20:53;99982.09;;;2.04;98.37
43745;BME280;29359;53.048;8.732;2023-01-19T06:22:59;99982.94;;;2.06;98.49
43745;BME280;29359;53.048;8.732;2023-01-19T06:25:01;99980.34;;;2.07;98.03
43745;BME280;29359;53.048;8.732;2023-01-19T06:27:02;99987.28;;;2.07;97.91
43745;BME280;29359;53.048;8.732;2023-01-19T06:29:04;99985.53;;;2.07;98.02
43745;BME280;29359;53.048;8.732;2023-01-19T06:31:05;99987.28;;;2.07;97.85
43745;BME280;29359;53.048;8.732;2023-01-19T06:33:07;99987.28;;;2.08;97.49
43745;BME280;29359;53.048;8.732;2023-01-19T06:35:08;99997.69;;;2.10;97.80
43745;BME280;29359;53.048;8.732;2023-01-19T06:37:10;99995.06;;;2.10;97.57
43745;BME280;29359;53.048;8.732;2023-01-19T06:39:12;99999.38;;;2.12;97.14
43745;BME280;29359;53.048;8.732;2023-01-19T06:41:13;100005.44;;;2.14;97.01
43745;BME280;29359;53.048;8.732;2023-01-19T06:43:15;100009.81;;;2.12;96.46
43745;BME280;29359;53.048;8.732;2023-01-19T06:45:16;100012.41;;;2.12;96.80
43745;BME280;29359;53.048;8.732;2023-01-19T06:47:18;100011.53;;;2.13;96.82
43745;BME280;29359;53.048;8.732;2023-01-19T06:49:19;100012.41;;;2.12;96.90
43745;BME280;29359;53.048;8.732;2023-01-19T06:51:21;100013.28;;;2.13;96.51
43745;BME280;29359;53.048;8.732;2023-01-19T06:53:23;100014.13;;;2.13;96.85
43745;BME280;29359;53.048;8.732;2023-01-19T06:55:24;100016.75;;;2.13;96.17
43745;BME280;29359;53.048;8.732;2023-01-19T06:57:28;100015.00;;;2.14;96.50
43745;BME280;29359;53.048;8.732;2023-01-19T06:59:30;100019.34;;;2.12;96.50
43745;BME280;29359;53.048;8.732;2023-01-19T07:01:31;100022.81;;;2.15;96.49
43745;BME280;29359;53.048;8.732;2023-01-19T07:03:34;100024.56;;;2.13;96.73
43745;BME280;29359;53.048;8.732;2023-01-19T07:05:37;100034.97;;;2.13;96.49
43745;BME280;29359;53.048;8.732;2023-01-19T07:07:39;100031.50;;;2.13;96.81
43745;BME280;29359;53.048;8.732;2023-01-19T07:09:42;100036.69;;;2.14;96.65
43745;BME280;29359;53.048;8.732;2023-01-19T07:11:44;100047.13;;;2.14;96.86
43745;BME280;29359;53.048;8.732;2023-01-19T07:13:45;100047.97;;;2.15;96.64
43745;BME280;29359;53.048;8.732;2023-01-19T07:15:51;100052.31;;;2.14;96.78
43745;BME280;29359;53.048;8.732;2023-01-19T07:17:57;100053.16;;;2.16;96.52
43745;BME280;29359;53.048;8.732;2023-01-19T07:19:59;100054.91;;;2.14;96.63
43745;BME280;29359;53.048;8.732;2023-01-19T07:22:00;100051.44;;;2.14;96.89
43745;BME280;29359;53.048;8.732;2023-01-19T07:24:03;100062.75;;;2.13;97.01
43745;BME280;29359;53.048;8.732;2023-01-19T07:26:05;100055.81;;;2.12;97.14
43745;BME280;29359;53.048;8.732;2023-01-19T07:28:06;100067.09;;;2.12;96.87
43745;BME280;29359;53.048;8.732;2023-01-19T07:30:08;100068.78;;;2.16;97.13
43745;BME280;29359;53.048;8.732;2023-01-19T07:32:10;100069.69;;;2.12;97.03
43745;BME280;29359;53.048;8.732;2023-01-19T07:34:11;100068.84;;;2.10;96.98
43745;BME280;29359;53.048;8.732;2023-01-19T07:36:13;100073.19;;;2.08;97.38
43745;BME280;29359;53.048;8.732;2023-01-19T07:38:15;100072.31;;;2.08;97.62
43745;BME280;29359;53.048;8.732;2023-01-19T07:40:18;100077.53;;;2.08;97.76
43745;BME280;29359;53.048;8.732;2023-01-19T07:42:19;100081.88;;;2.07;97.93
43745;BME280;29359;53.048;8.732;2023-01-19T07:44:21;100088.84;;;2.05;98.17
43745;BME280;29359;53.048;8.732;2023-01-19T07:46:22;100087.97;;;2.05;98.59
43745;BME280;29359;53.048;8.732;2023-01-19T07:48:24;100088.84;;;2.05;98.82
43745;BME280;29359;53.048;8.732;2023-01-19T07:50:26;100094.03;;;2.05;98.79
43745;BME280;29359;53.048;8.732;2023-01-19T07:52:29;100100.13;;;2.04;98.93
43745;BME280;29359;53.048;8.732;2023-01-19T07:54:30;100102.72;;;2.04;99.37
43745;BME280;29359;53.048;8.732;2023-01-19T07:56:32;100105.31;;;2.06;99.56
43745;BME280;29359;53.048;8.732;2023-01-19T07:58:34;100112.25;;;2.07;99.65
43745;BME280;29359;53.048;8.732;2023-01-19T08:00:37;100104.41;;;2.10;99.66
43745;BME280;29359;53.048;8.732;2023-01-19T08:02:39;100112.22;;;2.10;99.38
43745;BME280;29359;53.048;8.732;2023-01-19T08:04:41;100113.97;;;2.09;99.35
43745;BME280;29359;53.048;8.732;2023-01-19T08:06:44;100120.03;;;2.11;99.43
43745;BME280;29359;53.048;8.732;2023-01-19T08:08:47;100125.22;;;2.13;99.76
43745;BME280;29359;53.048;8.732;2023-01-19T08:10:50;100129.56;;;2.15;99.72
43745;BME280;29359;53.048;8.732;2023-01-19T08:12:53;100129.56;;;2.15;99.46
43745;BME280;29359;53.048;8.732;2023-01-19T08:14:54;100128.69;;;2.16;99.69
43745;BME280;29359;53.048;8.732;2023-01-19T08:16:59;100137.41;;;2.17;99.76
43745;BME280;29359;53.048;8.732;2023-01-19T08:19:02;100136.50;;;2.19;99.76
43745;BME280;29359;53.048;8.732;2023-01-19T08:21:04;100138.22;;;2.22;99.33
43745;BME280;29359;53.048;8.732;2023-01-19T08:23:05;100138.22;;;2.22;99.52
43745;BME280;29359;53.048;8.732;2023-01-19T08:25:07;100135.59;;;2.25;99.34
43745;BME280;29359;53.048;8.732;2023-01-19T08:27:09;100139.94;;;2.28;99.26
43745;BME280;29359;53.048;8.732;2023-01-19T08:29:13;100142.53;;;2.29;98.82
43745;BME280;29359;53.048;8.732;2023-01-19T08:31:15;100140.81;;;2.28;99.18
43745;BME280;29359;53.048;8.732;2023-01-19T08:33:23;100136.44;;;2.33;99.31
43745;BME280;29359;53.048;8.732;2023-01-19T08:35:25;100138.16;;;2.36;99.37
43745;BME280;29359;53.048;8.732;2023-01-19T08:37:26;100132.06;;;2.37;99.09
43745;BME280;29359;53.048;8.732;2023-01-19T08:39:28;100133.81;;;2.35;99.06
43745;BME280;29359;53.048;8.732;2023-01-19T08:41:30;100147.69;;;2.38;99.16
43745;BME280;29359;53.048;8.732;2023-01-19T08:43:32;100139.84;;;2.41;99.15
43745;BME280;29359;53.048;8.732;2023-01-19T08:45:36;100148.50;;;2.46;99.31
43745;BME280;29359;53.048;8.732;2023-01-19T08:47:38;100149.31;;;2.51;99.24
43745;BME280;29359;53.048;8.732;2023-01-19T08:49:39;100151.03;;;2.54;99.06
43745;BME280;29359;53.048;8.732;2023-01-19T08:51:41;100151.03;;;2.56;98.92
43745;BME280;29359;53.048;8.732;2023-01-19T08:53:46;100152.75;;;2.57;98.53
43745;BME280;29359;53.048;8.732;2023-01-19T08:55:49;100150.16;;;2.57;98.40
43745;BME280;29359;53.048;8.732;2023-01-19T08:57:51;100151.91;;;2.56;98.13
43745;BME280;29359;53.048;8.732;2023-01-19T08:59:53;100155.41;;;2.53;98.06
43745;BME280;29359;53.048;8.732;2023-01-19T09:01:54;100156.25;;;2.54;98.06
43745;BME280;29359;53.048;8.732;2023-01-19T09:03:56;100171.03;;;2.53;98.16
43745;BME280;29359;53.048;8.732;2023-01-19T09:05:58;100165.81;;;2.53;98.25
43745;BME280;29359;53.048;8.732;2023-01-19T09:07:59;100164.94;;;2.56;98.37
43745;BME280;29359;53.048;8.732;2023-01-19T09:10:05;100170.13;;;2.59;98.16
43745;BME280;29359;53.048;8.732;2023-01-19T09:12:07;100170.97;;;2.60;98.14
43745;BME280;29359;53.048;8.732;2023-01-19T09:14:08;100179.69;;;2.60;98.23
43745;BME280;29359;53.048;8.732;2023-01-19T09:16:10;100185.75;;;2.62;98.45
43745;BME280;29359;53.048;8.732;2023-01-19T09:18:17;100184.03;;;2.63;98.43
43745;BME280;29359;53.048;8.732;2023-01-19T09:20:19;100186.63;;;2.63;98.17
43745;BME280;29359;53.048;8.732;2023-01-19T09:22:21;100184.00;;;2.67;98.51
43745;BME280;29359;53.048;8.732;2023-01-19T09:24:22;100187.44;;;2.71;98.63
43745;BME280;29359;53.048;8.732;2023-01-19T09:26:24;100185.69;;;2.73;98.43
43745;BME280;29359;53.048;8.732;2023-01-19T09:28:25;100188.31;;;2.71;98.50
43745;BME280;29359;53.048;8.732;2023-01-19T09:30:27;100188.31;;;2.71;98.25
43745;BME280;29359;53.048;8.732;2023-01-19T09:32:29;100192.66;;;2.72;98.44
43745;BME280;29359;53.048;8.732;2023-01-19T09:34:30;100192.63;;;2.75;98.66
43745;BME280;29359;53.048;8.732;2023-01-19T09:36:32;100195.22;;;2.78;98.26
43745;BME280;29359;53.048;8.732;2023-01-19T09:38:33;100211.69;;;2.80;98.17
43745;BME280;29359;53.048;8.732;2023-01-19T09:40:50;100210.84;;;2.78;98.43
43745;BME280;29359;53.048;8.732;2023-01-19T09:43:15;100214.31;;;2.79;98.02
43745;BME280;29359;53.048;8.732;2023-01-19T09:45:35;100222.16;;;2.74;97.95
43745;BME280;29359;53.048;8.732;2023-01-19T09:47:38;100226.50;;;2.74;98.45
43745;BME280;29359;53.048;8.732;2023-01-19T09:49:43;100230.88;;;2.73;98.18
43745;BME280;29359;53.048;8.732;2023-01-19T09:51:47;100228.28;;;2.72;98.53
43745;BME280;29359;53.048;8.732;2023-01-19T09:56:14;100229.09;;;2.78;98.70
43745;BME280;29359;53.048;8.732;2023-01-19T09:58:16;100229.94;;;2.80;98.78
43745;BME280;29359;53.048;8.732;2023-01-19T10:00:19;100228.22;;;2.81;98.59
43745;BME280;29359;53.048;8.732;2023-01-19T10:02:35;100243.00;;;2.79;97.76
43745;BME280;29359;53.048;8.732;2023-01-19T10:04:41;100243.88;;;2.78;98.33
43745;BME280;29359;53.048;8.732;2023-01-19T10:06:44;100244.75;;;2.77;98.63
43745;BME280;29359;53.048;8.732;2023-01-19T10:08:55;100241.25;;;2.78;98.72
43745;BME280;29359;53.048;8.732;2023-01-19T10:11:01;100236.06;;;2.76;98.87
43745;BME280;29359;53.048;8.732;2023-01-19T10:13:25;100242.16;;;2.75;98.83
43745;BME280;29359;53.048;8.732;2023-01-19T10:18:18;100244.78;;;2.69;99.75
43745;BME280;29359;53.048;8.732;2023-01-19T10:20:27;100244.78;;;2.72;99.98
43745;BME280;29359;53.048;8.732;2023-01-19T10:22:32;100251.69;;;2.76;100.00
43745;BME280;29359;53.048;8.732;2023-01-19T10:24:41;100242.13;;;2.78;100.00
43745;BME280;29359;53.048;8.732;2023-01-19T10:26:49;100242.13;;;2.80;100.00
43745;BME280;29359;53.048;8.732;2023-01-19T10:29:01;100244.72;;;2.81;100.00
43745;BME280;29359;53.048;8.732;2023-01-19T10:31:04;100238.63;;;2.84;100.00
43745;BME280;29359;53.048;8.732;2023-01-19T10:33:11;100241.19;;;2.89;100.00
43745;BME280;29359;53.048;8.732;2023-01-19T10:35:15;100245.53;;;2.90;100.00
43745;BME280;29359;53.048;8.732;2023-01-19T10:37:27;100255.94;;;2.90;100.00
43745;BME280;29359;53.048;8.732;2023-01-19T10:39:32;100259.44;;;2.89;100.00
43745;BME280;29359;53.048;8.732;2023-01-19T10:41:44;100255.09;;;2.86;100.00
43745;BME280;29359;53.048;8.732;2023-01-19T10:43:58;100260.31;;;2.88;100.00
43745;BME280;29359;53.048;8.732;2023-01-19T10:46:04;100261.19;;;2.88;100.00
43745;BME280;29359;53.048;8.732;2023-01-19T10:48:06;100259.44;;;2.90;100.00
43745;BME280;29359;53.048;8.732;2023-01-19T10:50:35;100260.31;;;2.89;100.00
43745;BME280;29359;53.048;8.732;2023-01-19T10:52:40;100269.88;;;2.89;100.00
43745;BME280;29359;53.048;8.732;2023-01-19T10:54:45;100262.88;;;2.92;100.00
43745;BME280;29359;53.048;8.732;2023-01-19T10:56:54;100260.25;;;2.97;100.00
43745;BME280;29359;53.048;8.732;2023-01-19T10:58:58;100265.47;;;2.97;100.00
43745;BME280;29359;53.048;8.732;2023-01-19T11:03:30;100273.25;;;3.07;100.00
43745;BME280;29359;53.048;8.732;2023-01-19T11:05:32;100271.47;;;3.12;100.00
43745;BME280;29359;53.048;8.732;2023-01-19T11:07:34;100269.69;;;3.18;100.00
43745;BME280;29359;53.048;8.732;2023-01-19T11:09:35;100270.53;;;3.21;100.00
43745;BME280;29359;53.048;8.732;2023-01-19T11:11:42;100260.91;;;3.28;100.00
43745;BME280;29359;53.048;8.732;2023-01-19T11:14:02;100272.16;;;3.34;100.00
43745;BME280;29359;53.048;8.732;2023-01-19T11:16:07;100277.34;;;3.39;100.00
43745;BME280;29359;53.048;8.732;2023-01-19T11:18:34;100277.31;;;3.43;100.00
43745;BME280;29359;53.048;8.732;2023-01-19T11:20:49;100279.88;;;3.51;100.00
43745;BME280;29359;53.048;8.732;2023-01-19T11:23:05;100286.78;;;3.57;100.00
43745;BME280;29359;53.048;8.732;2023-01-19T11:25:20;100275.44;;;3.61;99.80